Skip Navigation Links Skip Navigation Links

Current Weather

Annette Island, Annette, Alaska

For information only: do not use for flight planning or navigation.
Latest weather
Observation time Tuesday, October 26, 2021 9:00 PM AKDT
Local time Tuesday, October 26, 2021 9:57 PM AKDT
Flight conditions Visual Meteorological Conditions
Winds
Wind speed calm
Visibility 10 mi.
Sky condition
Ceiling 3,600 ft. overcast
Cloud layer few clouds 500 ft.
Cloud layer overcast 3,600 ft.
Temperature 30°F
Dewpoint 27°F
Altimeter 29.38 in.Hg
Derived measurements
Relative humidity 86%
Wind chill 30°F
Density altitude -1133 ft.
Remarks
Special weather observation.
Fully automated report.
METAR SPUS81 KWBC 270504 SPECI PANN 270500Z AUTO 00000KT 10SM FEW005 OVC036 M01/M03 A2938

Settings

Location code

InnerDrive.Weather 4.0.6770.0 Release CLR 4.0.30319.42000
Copyright ©2018 Inner Drive Technology. All rights reserved. Portions Copyright ©1986-2018 David Braverman.

Find weather

Site navigation


Skip Navigation Links

Place info

Page info

PayPal - The safer, easier way to pay online!

Return home.

Copyright ©2021 Inner Drive Technology. Purveyors of fine, hand-crafted computer software. Page printed 2021-10-27T05:57:55 UTC.